createdAt,value
2018-06-29T00:00:36.169Z,21.02
2018-06-29T00:03:05.811Z,20.88
2018-06-29T00:05:35.139Z,20.68
2018-06-29T00:08:04.429Z,20.50
2018-06-29T00:10:33.821Z,20.46
2018-06-29T00:13:03.330Z,20.49
2018-06-29T00:15:32.941Z,20.53
2018-06-29T00:18:02.244Z,20.43
2018-06-29T00:20:31.638Z,20.31
2018-06-29T00:23:01.029Z,20.16
2018-06-29T00:25:30.351Z,20.28
2018-06-29T00:27:59.687Z,20.07
2018-06-29T00:30:29.013Z,20.02
2018-06-29T00:32:58.339Z,19.96
2018-06-29T00:35:27.854Z,20.02
2018-06-29T00:37:57.166Z,19.93
2018-06-29T00:40:26.567Z,19.85
2018-06-29T00:42:56.055Z,19.82
2018-06-29T00:45:25.343Z,19.73
2018-06-29T00:47:54.764Z,19.92
2018-06-29T00:50:24.071Z,19.90
2018-06-29T00:52:53.465Z,19.90
2018-06-29T00:55:22.786Z,19.71
2018-06-29T00:57:52.114Z,19.61
2018-06-29T01:00:21.411Z,19.53
2018-06-29T01:02:50.712Z,19.65
2018-06-29T01:05:20.186Z,19.80
2018-06-29T01:07:49.430Z,19.67
2018-06-29T01:10:18.485Z,19.74
2018-06-29T01:12:47.824Z,19.50
2018-06-29T01:15:17.136Z,19.58
2018-06-29T01:17:46.550Z,19.71
2018-06-29T01:20:15.979Z,19.66
2018-06-29T01:22:45.251Z,19.70
2018-06-29T01:25:14.555Z,19.67
2018-06-29T01:27:43.882Z,19.60
2018-06-29T01:30:13.141Z,19.61
2018-06-29T01:32:42.447Z,19.60
2018-06-29T01:35:11.729Z,19.57
2018-06-29T01:37:41.010Z,19.50
2018-06-29T01:40:10.324Z,19.55
2018-06-29T01:42:39.848Z,19.51
2018-06-29T01:45:09.131Z,19.50
2018-06-29T01:47:38.509Z,19.55
2018-06-29T01:50:07.807Z,19.41
2018-06-29T01:52:37.310Z,19.40
2018-06-29T01:55:06.707Z,19.42
2018-06-29T01:57:36.022Z,19.42
2018-06-29T02:00:05.426Z,19.28
2018-06-29T02:02:34.753Z,19.34
2018-06-29T02:05:04.464Z,19.26
2018-06-29T02:07:33.797Z,19.24
2018-06-29T02:10:03.224Z,19.08
2018-06-29T02:12:32.564Z,19.02
2018-06-29T02:15:01.946Z,18.87
2018-06-29T02:17:31.249Z,18.74
2018-06-29T02:20:00.638Z,18.63
2018-06-29T02:22:29.972Z,18.53
2018-06-29T02:24:59.413Z,18.49
2018-06-29T02:27:29.031Z,18.51
2018-06-29T02:29:58.346Z,18.56
2018-06-29T02:32:27.677Z,18.61
2018-06-29T02:34:57.262Z,18.63
2018-06-29T02:37:26.595Z,18.67
2018-06-29T02:39:56.088Z,18.76
2018-06-29T02:42:25.462Z,18.75
2018-06-29T02:44:54.834Z,18.83
2018-06-29T02:47:24.111Z,18.66
2018-06-29T02:49:53.947Z,18.73
2018-06-29T02:52:23.315Z,18.83
2018-06-29T02:54:52.696Z,18.82
2018-06-29T02:57:22.040Z,18.77
2018-06-29T02:59:51.331Z,18.71
2018-06-29T03:02:21.105Z,18.68
2018-06-29T03:04:50.589Z,18.67
2018-06-29T03:07:19.902Z,18.66
2018-06-29T03:09:49.269Z,18.74
2018-06-29T03:12:19.251Z,18.69
2018-06-29T03:14:48.575Z,18.69
2018-06-29T03:17:17.872Z,18.68
2018-06-29T03:19:47.351Z,18.75
2018-06-29T03:22:16.863Z,18.82
2018-06-29T03:24:46.143Z,18.81
2018-06-29T03:27:15.480Z,18.76
2018-06-29T03:29:45.055Z,18.81
2018-06-29T03:32:14.635Z,18.72
2018-06-29T03:34:44.285Z,18.90
2018-06-29T03:37:13.607Z,19.01
2018-06-29T03:39:42.862Z,18.96
2018-06-29T03:42:12.142Z,19.10
2018-06-29T03:44:41.426Z,19.07
2018-06-29T03:47:10.734Z,19.07
2018-06-29T03:49:40.053Z,19.21
2018-06-29T03:52:09.337Z,19.06
2018-06-29T03:54:38.735Z,19.21
2018-06-29T03:57:08.351Z,19.46
2018-06-29T03:59:37.646Z,19.57
2018-06-29T04:02:06.962Z,19.60
2018-06-29T04:04:36.270Z,19.59
2018-06-29T04:07:05.679Z,19.79
2018-06-29T04:09:35.358Z,19.90
2018-06-29T04:12:04.968Z,20.04
2018-06-29T04:14:34.468Z,20.12
2018-06-29T04:17:03.983Z,20.22
2018-06-29T04:19:33.631Z,20.30
2018-06-29T04:22:03.308Z,20.31
2018-06-29T04:24:32.799Z,20.27
2018-06-29T04:27:02.491Z,20.47
2018-06-29T04:29:31.920Z,20.49
2018-06-29T04:32:01.349Z,20.67
2018-06-29T04:34:30.898Z,20.63
2018-06-29T04:37:00.552Z,20.78
2018-06-29T04:39:30.141Z,20.95
2018-06-29T04:41:59.850Z,21.03
2018-06-29T04:44:29.291Z,20.98
2018-06-29T04:46:58.971Z,21.07
2018-06-29T04:49:28.365Z,21.19
2018-06-29T04:51:58.004Z,21.22
2018-06-29T04:54:27.602Z,21.19
2018-06-29T04:56:56.893Z,21.28
2018-06-29T04:59:26.195Z,21.35
2018-06-29T05:01:55.516Z,21.42
2018-06-29T05:04:25.401Z,21.59
2018-06-29T05:06:55.099Z,21.73
2018-06-29T05:09:24.655Z,21.72
2018-06-29T05:11:54.438Z,21.66
2018-06-29T05:14:24.056Z,21.81
2018-06-29T05:16:53.752Z,21.93
2018-06-29T05:19:23.889Z,21.92
2018-06-29T05:21:53.144Z,21.93
2018-06-29T05:24:22.662Z,22.10
2018-06-29T05:26:53.027Z,22.26
2018-06-29T05:29:22.614Z,22.27
2018-06-29T05:31:51.905Z,22.33
2018-06-29T05:34:21.621Z,22.48
2018-06-29T05:36:51.136Z,22.60
2018-06-29T05:39:20.496Z,22.34
2018-06-29T05:41:49.869Z,22.55
2018-06-29T05:44:19.142Z,22.64
2018-06-29T05:46:48.476Z,22.73
2018-06-29T05:49:17.945Z,22.70
2018-06-29T05:51:47.507Z,22.49
2018-06-29T05:54:16.804Z,22.52
2018-06-29T05:56:46.148Z,22.76
2018-06-29T05:59:15.403Z,22.91
2018-06-29T06:01:45.028Z,23.04
2018-06-29T06:04:14.364Z,23.07
2018-06-29T06:06:43.637Z,23.06
2018-06-29T06:09:13.669Z,23.07
2018-06-29T06:11:43.494Z,23.03
2018-06-29T06:14:13.680Z,23.13
2018-06-29T06:16:43.078Z,23.14
2018-06-29T06:19:29.222Z,23.33
2018-06-29T06:21:58.661Z,23.44
2018-06-29T06:24:28.119Z,23.64
2018-06-29T06:26:57.934Z,23.75
2018-06-29T06:29:27.283Z,23.79
2018-06-29T06:31:56.674Z,23.85
2018-06-29T06:34:26.054Z,23.32
2018-06-29T06:36:55.441Z,23.52
2018-06-29T06:39:24.818Z,23.87
2018-06-29T06:41:54.224Z,24.10
2018-06-29T06:44:23.621Z,24.29
2018-06-29T06:46:52.947Z,24.39
2018-06-29T06:49:22.360Z,24.53
2018-06-29T06:51:51.711Z,24.67
2018-06-29T06:54:20.998Z,24.58
2018-06-29T06:56:50.390Z,24.86
2018-06-29T06:59:19.825Z,25.05
2018-06-29T07:01:48.922Z,25.22
2018-06-29T07:04:18.303Z,25.34
2018-06-29T07:06:47.670Z,25.44
2018-06-29T07:09:17.000Z,25.68
2018-06-29T07:11:46.643Z,25.81
2018-06-29T07:14:15.939Z,25.86
2018-06-29T07:16:45.252Z,25.51
2018-06-29T07:19:14.640Z,25.49
2018-06-29T07:21:43.957Z,25.84
2018-06-29T07:24:13.282Z,25.90
2018-06-29T07:26:42.575Z,25.99
2018-06-29T07:29:11.904Z,25.90
2018-06-29T07:31:41.250Z,25.70
2018-06-29T07:34:11.165Z,25.93
2018-06-29T07:36:41.361Z,26.36
2018-06-29T07:39:11.186Z,26.56
2018-06-29T07:41:40.543Z,26.63
2018-06-29T07:44:09.854Z,26.84
2018-06-29T07:46:39.401Z,27.01
2018-06-29T07:49:08.792Z,26.73
2018-06-29T07:51:38.144Z,26.69
2018-06-29T07:54:07.499Z,26.74
2018-06-29T07:56:37.041Z,27.13
2018-06-29T07:59:06.583Z,27.39
2018-06-29T08:01:35.935Z,27.60
2018-06-29T08:04:05.432Z,27.83
2018-06-29T08:06:34.763Z,27.89
2018-06-29T08:09:07.454Z,28.06
2018-06-29T08:11:36.856Z,28.22
2018-06-29T08:14:06.239Z,27.95
2018-06-29T08:16:36.044Z,27.73
2018-06-29T08:19:05.483Z,27.84
2018-06-29T08:21:35.444Z,27.93
2018-06-29T08:24:04.995Z,28.21
2018-06-29T08:26:34.328Z,28.42
2018-06-29T08:29:03.677Z,28.39
2018-06-29T08:31:33.170Z,28.51
2018-06-29T08:34:02.539Z,28.67
2018-06-29T08:36:32.547Z,28.75
2018-06-29T08:39:02.083Z,28.69
2018-06-29T08:41:31.507Z,28.50
2018-06-29T08:44:00.887Z,28.77
2018-06-29T08:46:30.214Z,28.87
2018-06-29T08:48:59.499Z,29.00
2018-06-29T08:51:28.763Z,28.91
2018-06-29T08:53:58.058Z,28.56
2018-06-29T08:56:27.335Z,28.93
2018-06-29T08:58:56.677Z,29.33
2018-06-29T09:01:26.274Z,29.41
2018-06-29T09:03:55.589Z,29.54
2018-06-29T09:06:24.884Z,29.44
2018-06-29T09:08:54.190Z,29.39
2018-06-29T09:11:23.667Z,29.69
2018-06-29T09:13:52.999Z,29.88
2018-06-29T09:16:22.350Z,29.96
2018-06-29T09:18:51.783Z,29.77
2018-06-29T09:21:21.044Z,29.95
2018-06-29T09:23:50.358Z,30.01
2018-06-29T09:26:19.778Z,30.29
2018-06-29T09:28:49.073Z,30.56
2018-06-29T09:31:18.514Z,30.16
2018-06-29T09:33:47.979Z,30.34
2018-06-29T09:36:17.347Z,30.55
2018-06-29T09:38:46.827Z,30.32
2018-06-29T09:41:16.192Z,30.61
2018-06-29T09:43:45.620Z,30.25
2018-06-29T09:46:15.237Z,30.22
2018-06-29T09:48:44.570Z,29.98
2018-06-29T09:51:13.646Z,30.04
2018-06-29T09:53:42.959Z,30.05
2018-06-29T09:56:12.313Z,30.08
2018-06-29T09:58:41.717Z,30.26
2018-06-29T10:01:11.124Z,30.53
2018-06-29T10:03:40.418Z,30.53
2018-06-29T10:06:09.795Z,30.27
2018-06-29T10:08:39.908Z,30.50
2018-06-29T10:11:09.211Z,30.90
2018-06-29T10:13:38.598Z,31.11
2018-06-29T10:16:08.016Z,31.35
2018-06-29T10:18:37.452Z,31.32
2018-06-29T10:21:06.752Z,31.56
2018-06-29T10:23:36.154Z,31.62
2018-06-29T10:26:05.547Z,31.77
2018-06-29T10:28:34.861Z,31.82
2018-06-29T10:31:04.491Z,31.76
2018-06-29T10:33:33.807Z,31.43
2018-06-29T10:36:03.151Z,31.37
2018-06-29T10:38:32.393Z,31.64
2018-06-29T10:41:01.903Z,32.06
2018-06-29T10:43:31.187Z,32.08
2018-06-29T10:46:00.653Z,32.24
2018-06-29T10:48:29.966Z,32.16
2018-06-29T10:50:59.241Z,32.09
2018-06-29T10:53:28.961Z,32.38
2018-06-29T10:55:58.332Z,32.59
2018-06-29T10:58:27.636Z,32.24
2018-06-29T11:00:57.033Z,32.45
2018-06-29T11:03:26.339Z,32.28
2018-06-29T11:05:55.883Z,32.53
2018-06-29T11:08:25.225Z,32.43
2018-06-29T11:10:54.730Z,32.39
2018-06-29T11:13:24.423Z,31.73
2018-06-29T11:15:54.078Z,31.80
2018-06-29T11:18:23.397Z,32.01
2018-06-29T11:20:52.814Z,32.39
2018-06-29T11:23:22.168Z,32.56
2018-06-29T11:25:51.513Z,32.60
2018-06-29T11:28:20.967Z,32.24
2018-06-29T11:30:50.509Z,32.44
2018-06-29T11:33:19.792Z,32.42
2018-06-29T11:35:49.115Z,32.66
2018-06-29T11:38:18.543Z,32.89
2018-06-29T11:40:47.808Z,32.67
2018-06-29T11:43:17.590Z,32.79
2018-06-29T11:45:47.266Z,32.58
2018-06-29T11:48:16.610Z,32.68
2018-06-29T11:50:46.056Z,32.52
2018-06-29T11:53:15.369Z,32.48
2018-06-29T11:55:44.944Z,32.47
2018-06-29T11:58:14.203Z,32.62
2018-06-29T12:00:43.794Z,32.94
2018-06-29T12:03:13.366Z,33.06
2018-06-29T12:05:42.668Z,32.97
2018-06-29T12:08:12.207Z,33.07
2018-06-29T12:10:41.772Z,33.12
2018-06-29T12:13:11.275Z,33.29
2018-06-29T12:15:40.801Z,33.02
2018-06-29T12:18:10.444Z,33.10
2018-06-29T12:20:39.904Z,33.38
2018-06-29T12:23:09.756Z,33.58
2018-06-29T12:25:39.388Z,33.55
2018-06-29T12:28:08.675Z,33.58
2018-06-29T12:30:38.087Z,33.74
2018-06-29T12:33:07.482Z,33.86
2018-06-29T12:35:36.814Z,34.05
2018-06-29T12:38:06.510Z,33.99
2018-06-29T12:40:35.946Z,33.68
2018-06-29T12:43:05.289Z,33.58
2018-06-29T12:45:34.819Z,33.35
2018-06-29T12:48:04.156Z,33.41
2018-06-29T12:50:33.493Z,33.97
2018-06-29T12:53:02.825Z,33.71
2018-06-29T12:55:32.148Z,33.48
2018-06-29T12:58:01.458Z,33.45
2018-06-29T13:00:30.795Z,33.77
2018-06-29T13:03:00.208Z,33.73
2018-06-29T13:05:29.669Z,33.94
2018-06-29T13:07:59.285Z,33.98
2018-06-29T13:10:28.627Z,34.00
2018-06-29T13:12:57.962Z,33.26
2018-06-29T13:15:27.226Z,33.17
2018-06-29T13:18:18.635Z,33.13
2018-06-29T13:20:50.653Z,33.20
2018-06-29T13:23:20.175Z,33.14
2018-06-29T13:25:49.816Z,33.18
2018-06-29T13:28:19.585Z,33.00
2018-06-29T13:30:49.158Z,32.65
2018-06-29T13:33:18.721Z,32.84
2018-06-29T13:35:48.345Z,32.73
2018-06-29T13:38:17.957Z,32.69
2018-06-29T13:40:47.640Z,33.01
2018-06-29T13:43:17.205Z,32.83
2018-06-29T13:45:46.459Z,32.99
2018-06-29T13:48:15.964Z,32.49
2018-06-29T13:50:46.932Z,32.45
2018-06-29T13:53:16.752Z,32.27
2018-06-29T13:55:46.305Z,32.68
2018-06-29T13:58:15.891Z,32.95
2018-06-29T14:00:46.344Z,33.13
2018-06-29T14:03:16.226Z,33.02
2018-06-29T14:05:45.743Z,32.70
2018-06-29T14:08:15.433Z,32.68
2018-06-29T14:10:45.628Z,32.32
2018-06-29T14:13:15.104Z,32.39
2018-06-29T14:15:44.709Z,32.29
2018-06-29T14:18:14.561Z,32.47
2018-06-29T14:20:44.464Z,32.72
2018-06-29T14:23:14.059Z,32.66
2018-06-29T14:25:43.613Z,32.41
2018-06-29T14:28:13.179Z,32.19
2018-06-29T14:30:42.694Z,32.40
2018-06-29T14:33:12.519Z,31.68
2018-06-29T14:35:42.025Z,31.87
2018-06-29T14:38:11.690Z,31.62
2018-06-29T14:40:41.462Z,31.87
2018-06-29T14:43:11.020Z,32.08
2018-06-29T14:45:41.054Z,31.85
2018-06-29T14:48:10.856Z,32.02
2018-06-29T14:50:40.778Z,31.85
2018-06-29T14:53:10.565Z,31.88
2018-06-29T14:55:40.277Z,31.89
2018-06-29T14:58:09.865Z,31.48
2018-06-29T15:00:39.668Z,31.56
2018-06-29T15:03:09.341Z,31.98
2018-06-29T15:05:38.947Z,31.82
2018-06-29T15:08:08.532Z,31.57
2018-06-29T15:10:38.114Z,31.24
2018-06-29T15:13:08.335Z,30.90
2018-06-29T15:15:38.390Z,30.83
2018-06-29T15:18:08.929Z,30.81
2018-06-29T15:20:38.592Z,31.00
2018-06-29T15:23:08.434Z,30.85
2018-06-29T15:25:38.075Z,31.04
2018-06-29T15:28:08.031Z,31.53
2018-06-29T15:30:38.159Z,31.62
2018-06-29T15:33:07.969Z,31.49
2018-06-29T15:35:37.760Z,31.44
2018-06-29T15:38:07.535Z,31.13
2018-06-29T15:40:37.239Z,31.07
2018-06-29T15:43:09.871Z,30.69
2018-06-29T15:45:39.210Z,30.54
2018-06-29T15:48:09.315Z,30.45
2018-06-29T15:50:38.862Z,30.45
2018-06-29T15:53:09.369Z,30.28
2018-06-29T15:55:38.970Z,30.25
2018-06-29T15:58:08.506Z,30.05
2018-06-29T16:00:38.215Z,30.20
2018-06-29T16:03:08.128Z,30.25
2018-06-29T16:05:37.894Z,30.33
2018-06-29T16:08:07.888Z,30.06
2018-06-29T16:10:37.520Z,30.04
2018-06-29T16:13:07.175Z,30.12
2018-06-29T16:15:36.769Z,30.16
2018-06-29T16:18:06.792Z,30.01
2018-06-29T16:20:36.272Z,29.82
2018-06-29T16:23:06.419Z,29.83
2018-06-29T16:25:35.956Z,29.98
2018-06-29T16:28:05.627Z,30.05
2018-06-29T16:30:35.288Z,29.81
2018-06-29T16:33:04.886Z,29.62
2018-06-29T16:35:34.450Z,29.38
2018-06-29T16:38:04.091Z,29.61
2018-06-29T16:40:33.613Z,29.68
2018-06-29T16:43:03.172Z,29.63
2018-06-29T16:45:33.148Z,29.60
2018-06-29T16:48:03.479Z,29.70
2018-06-29T16:50:32.971Z,29.84
2018-06-29T16:53:02.591Z,29.80
2018-06-29T16:55:32.063Z,29.80
2018-06-29T16:58:01.814Z,29.56
2018-06-29T17:00:32.036Z,29.43
2018-06-29T17:03:01.516Z,29.54
2018-06-29T17:05:31.222Z,29.50
2018-06-29T17:08:00.805Z,29.56
2018-06-29T17:10:30.319Z,29.67
2018-06-29T17:12:59.523Z,29.73
2018-06-29T17:15:29.050Z,29.72
2018-06-29T17:17:58.602Z,29.47
2018-06-29T17:20:28.105Z,29.26
2018-06-29T17:22:58.150Z,29.26
2018-06-29T17:25:27.657Z,28.79
2018-06-29T17:27:57.285Z,28.76
2018-06-29T17:30:27.118Z,28.61
2018-06-29T17:32:56.653Z,28.25
2018-06-29T17:35:26.199Z,28.17
2018-06-29T17:37:55.736Z,27.91
2018-06-29T17:40:25.288Z,27.70
2018-06-29T17:42:54.818Z,27.73
2018-06-29T17:45:24.369Z,27.74
2018-06-29T17:47:54.227Z,27.59
2018-06-29T17:50:23.878Z,27.21
2018-06-29T17:52:53.751Z,27.24
2018-06-29T17:55:23.345Z,27.53
2018-06-29T17:57:53.016Z,27.38
2018-06-29T18:00:22.654Z,27.52
2018-06-29T18:02:52.198Z,27.50
2018-06-29T18:05:21.798Z,27.14
2018-06-29T18:07:51.405Z,27.02
2018-06-29T18:10:20.898Z,26.92
2018-06-29T18:12:50.500Z,27.12
2018-06-29T18:15:20.281Z,27.11
2018-06-29T18:17:49.841Z,26.85
2018-06-29T18:20:19.657Z,26.77
2018-06-29T18:22:49.354Z,27.03
2018-06-29T18:25:19.090Z,27.05
2018-06-29T18:27:48.651Z,27.08
2018-06-29T18:30:18.265Z,27.03
2018-06-29T18:32:47.859Z,27.02
2018-06-29T18:35:17.356Z,26.80
2018-06-29T18:37:47.016Z,26.50
2018-06-29T18:40:16.544Z,26.48
2018-06-29T18:42:46.112Z,26.47
2018-06-29T18:45:15.783Z,26.47
2018-06-29T18:47:45.399Z,26.28
2018-06-29T18:50:14.982Z,26.31
2018-06-29T18:52:44.697Z,26.13
2018-06-29T18:55:14.314Z,26.20
2018-06-29T18:57:44.031Z,26.19
2018-06-29T19:00:13.716Z,26.19
2018-06-29T19:02:43.356Z,25.98
2018-06-29T19:05:15.664Z,25.81
2018-06-29T19:07:45.267Z,25.65
2018-06-29T19:10:14.882Z,25.62
2018-06-29T19:12:44.661Z,25.60
2018-06-29T19:15:14.267Z,25.51
2018-06-29T19:17:43.880Z,25.36
2018-06-29T19:20:13.578Z,25.35
2018-06-29T19:22:43.106Z,25.25
2018-06-29T19:25:12.680Z,25.21
2018-06-29T19:27:42.374Z,25.33
2018-06-29T19:30:11.933Z,25.19
2018-06-29T19:32:41.529Z,25.06
2018-06-29T19:35:11.182Z,24.98
2018-06-29T19:37:40.812Z,24.93
2018-06-29T19:40:10.329Z,24.88
2018-06-29T19:42:40.366Z,24.87
2018-06-29T19:45:10.040Z,24.85
2018-06-29T19:47:39.555Z,24.82
2018-06-29T19:50:09.434Z,24.83
2018-06-29T19:52:39.017Z,24.68
2018-06-29T19:55:08.710Z,24.58
2018-06-29T19:57:38.378Z,24.71
2018-06-29T20:00:08.015Z,24.46
2018-06-29T20:02:37.700Z,24.48
2018-06-29T20:05:07.608Z,24.13
2018-06-29T20:07:37.300Z,24.13
2018-06-29T20:10:08.019Z,24.28
2018-06-29T20:12:37.602Z,24.32
2018-06-29T20:15:09.403Z,24.37
2018-06-29T20:17:39.226Z,24.28
2018-06-29T20:20:10.638Z,24.21
2018-06-29T20:22:40.124Z,24.12
2018-06-29T20:25:09.727Z,24.03
2018-06-29T20:27:39.279Z,24.12
2018-06-29T20:30:09.187Z,24.05
2018-06-29T20:32:38.762Z,23.92
2018-06-29T20:35:08.470Z,23.94
2018-06-29T20:37:37.996Z,23.96
2018-06-29T20:40:07.696Z,23.87
2018-06-29T20:42:38.041Z,23.89
2018-06-29T20:45:07.689Z,23.90
2018-06-29T20:47:37.384Z,23.78
2018-06-29T20:50:07.127Z,23.62
2018-06-29T20:52:36.698Z,23.32
2018-06-29T20:55:06.491Z,23.31
2018-06-29T20:57:36.108Z,23.34
2018-06-29T21:00:06.970Z,23.37
2018-06-29T21:02:36.553Z,23.25
2018-06-29T21:05:06.389Z,23.34
2018-06-29T21:07:35.981Z,23.27
2018-06-29T21:10:05.816Z,23.22
2018-06-29T21:12:35.355Z,23.20
2018-06-29T21:15:04.978Z,23.26
2018-06-29T21:17:34.509Z,23.04
2018-06-29T21:20:03.805Z,23.24
2018-06-29T21:22:33.483Z,23.18
2018-06-29T21:25:03.985Z,23.10
2018-06-29T21:27:33.792Z,22.94
2018-06-29T21:30:03.539Z,22.97
2018-06-29T21:32:33.110Z,23.00
2018-06-29T21:35:02.725Z,23.09
2018-06-29T21:37:32.253Z,22.97
2018-06-29T21:40:01.819Z,22.84
2018-06-29T21:42:31.366Z,22.84
2018-06-29T21:45:00.983Z,22.64
2018-06-29T21:47:30.411Z,22.78
2018-06-29T21:50:00.109Z,22.74
2018-06-29T21:52:29.724Z,22.75
2018-06-29T21:54:59.287Z,22.77
2018-06-29T21:57:28.882Z,22.65
2018-06-29T21:59:58.442Z,22.60
2018-06-29T22:02:28.055Z,22.60
2018-06-29T22:04:57.774Z,22.51
2018-06-29T22:07:27.369Z,22.38
2018-06-29T22:09:56.908Z,22.33
2018-06-29T22:12:26.737Z,22.29
2018-06-29T22:14:56.329Z,22.19
2018-06-29T22:17:25.909Z,22.20
2018-06-29T22:19:55.556Z,22.27
2018-06-29T22:22:25.170Z,22.00
2018-06-29T22:24:55.378Z,22.03
2018-06-29T22:27:25.003Z,22.08
2018-06-29T22:29:54.562Z,22.00
2018-06-29T22:32:23.814Z,21.94
2018-06-29T22:34:53.720Z,21.92
2018-06-29T22:37:23.466Z,21.87
2018-06-29T22:39:53.823Z,21.73
2018-06-29T22:42:23.387Z,21.73
2018-06-29T22:44:52.938Z,21.66
2018-06-29T22:47:22.522Z,21.65
2018-06-29T22:49:52.165Z,21.45
2018-06-29T22:52:21.699Z,21.33
2018-06-29T22:54:51.758Z,21.29
2018-06-29T22:57:21.314Z,21.31
2018-06-29T22:59:50.838Z,21.20
2018-06-29T23:02:20.528Z,21.19
2018-06-29T23:04:50.046Z,21.33
2018-06-29T23:07:19.654Z,21.15
2018-06-29T23:09:49.376Z,21.11
2018-06-29T23:12:20.488Z,21.09
2018-06-29T23:14:50.502Z,21.02
2018-06-29T23:17:20.392Z,21.02
2018-06-29T23:19:49.886Z,21.12
2018-06-29T23:22:19.937Z,21.08
2018-06-29T23:24:49.508Z,21.17
2018-06-29T23:27:19.217Z,20.93
2018-06-29T23:29:48.732Z,21.03
2018-06-29T23:32:19.237Z,20.98
2018-06-29T23:34:49.638Z,20.80
2018-06-29T23:37:19.154Z,20.72
2018-06-29T23:39:48.671Z,20.63
2018-06-29T23:42:18.489Z,20.59
2018-06-29T23:44:48.083Z,20.39
2018-06-29T23:47:17.616Z,20.60
2018-06-29T23:49:47.134Z,20.61
2018-06-29T23:52:16.760Z,20.47
2018-06-29T23:54:46.252Z,20.38
2018-06-29T23:57:15.835Z,20.34
2018-06-29T23:59:45.367Z,20.36
